createdAt,value
2019-03-18T00:01:15.838Z,98957.81
2019-03-18T00:04:22.133Z,98955.02
2019-03-18T00:07:28.656Z,98961.55
2019-03-18T00:10:35.273Z,98961.02
2019-03-18T00:13:41.569Z,98965.57
2019-03-18T00:16:47.920Z,98959.95
2019-03-18T00:19:55.886Z,98964.13
2019-03-18T00:23:02.447Z,98968.49
2019-03-18T00:26:12.058Z,98975.66
2019-03-18T00:29:18.617Z,98971.70
2019-03-18T00:32:25.784Z,98983.59
2019-03-18T00:35:32.208Z,98974.59
2019-03-18T00:38:39.152Z,98976.26
2019-03-18T00:41:45.625Z,98975.94
2019-03-18T00:44:52.195Z,98988.48
2019-03-18T00:48:00.228Z,98973.89
2019-03-18T00:51:09.211Z,98972.03
2019-03-18T00:54:15.735Z,98972.22
2019-03-18T00:57:23.489Z,98978.20
2019-03-18T01:00:30.041Z,98978.63
2019-03-18T01:03:36.469Z,98974.26
2019-03-18T01:06:43.884Z,98974.48
2019-03-18T01:09:50.782Z,98974.08
2019-03-18T01:12:58.835Z,98977.36
2019-03-18T01:16:05.594Z,98965.59
2019-03-18T01:19:12.080Z,98958.14
2019-03-18T01:22:18.532Z,98962.78
2019-03-18T01:25:26.129Z,98967.86
2019-03-18T01:28:34.377Z,98967.81
2019-03-18T01:31:41.056Z,98961.91
2019-03-18T01:34:49.438Z,98971.43
2019-03-18T01:37:57.315Z,98981.15
2019-03-18T01:41:03.726Z,98970.93
2019-03-18T01:44:10.380Z,98973.30
2019-03-18T01:47:18.233Z,98986.40
2019-03-18T01:50:24.709Z,98975.58
2019-03-18T01:53:31.539Z,98986.78
2019-03-18T01:56:37.933Z,98977.80
2019-03-18T01:59:46.128Z,98973.67
2019-03-18T02:02:52.515Z,98980.59
2019-03-18T02:05:59.584Z,98987.66
2019-03-18T02:09:06.882Z,98977.16
2019-03-18T02:12:15.174Z,98972.05
2019-03-18T02:15:21.601Z,98983.05
2019-03-18T02:18:27.967Z,98970.00
2019-03-18T02:21:34.263Z,98981.38
2019-03-18T02:24:40.761Z,98983.84
2019-03-18T02:27:47.224Z,98983.84
2019-03-18T02:30:54.454Z,98974.22
2019-03-18T02:34:02.575Z,98984.27
2019-03-18T02:37:09.955Z,98989.50
2019-03-18T02:40:17.857Z,98985.13
2019-03-18T02:43:24.278Z,98998.41
2019-03-18T02:46:30.618Z,98991.03
2019-03-18T02:49:37.438Z,98983.85
2019-03-18T02:52:43.741Z,98990.79
2019-03-18T02:55:50.192Z,98996.88
2019-03-18T02:58:58.157Z,98990.13
2019-03-18T03:02:04.643Z,98994.59
2019-03-18T03:05:11.484Z,98998.05
2019-03-18T03:08:18.412Z,98998.22
2019-03-18T03:11:24.669Z,98996.88
2019-03-18T03:14:32.153Z,98995.15
2019-03-18T03:17:38.533Z,98998.49
2019-03-18T03:20:45.659Z,98992.72
2019-03-18T03:23:52.041Z,98996.43
2019-03-18T03:26:58.786Z,98998.72
2019-03-18T03:30:05.734Z,98997.05
2019-03-18T03:33:12.105Z,98997.38
2019-03-18T03:36:21.731Z,98997.98
2019-03-18T03:39:29.663Z,99002.58
2019-03-18T03:42:36.001Z,98997.55
2019-03-18T03:45:43.102Z,98988.86
2019-03-18T03:48:49.601Z,98994.25
2019-03-18T03:51:56.010Z,98996.94
2019-03-18T03:55:02.399Z,98986.48
2019-03-18T03:58:08.789Z,98996.53
2019-03-18T04:01:15.107Z,98990.95
2019-03-18T04:04:23.947Z,98993.22
2019-03-18T04:07:30.484Z,98989.97
2019-03-18T04:10:37.491Z,98936.17
2019-03-18T04:13:43.748Z,98991.33
2019-03-18T04:17:01.612Z,98998.89
2019-03-18T04:20:04.109Z,98999.64
2019-03-18T04:23:10.671Z,99005.44
2019-03-18T04:26:18.404Z,99002.28
2019-03-18T04:29:24.882Z,99001.16
2019-03-18T04:32:31.364Z,98999.39
2019-03-18T04:35:37.774Z,98999.39
2019-03-18T04:38:44.353Z,98993.67
2019-03-18T04:41:51.164Z,99001.02
2019-03-18T04:44:57.554Z,99013.30
2019-03-18T04:48:04.039Z,98996.94
2019-03-18T04:51:10.394Z,98996.94
2019-03-18T04:54:17.780Z,99007.05
2019-03-18T04:57:24.204Z,99008.41
2019-03-18T05:00:30.768Z,99020.71
2019-03-18T05:03:37.163Z,99021.07
2019-03-18T05:06:45.005Z,99023.75
2019-03-18T05:09:51.429Z,99042.95
2019-03-18T05:12:57.831Z,99021.20
2019-03-18T05:16:04.187Z,99036.89
2019-03-18T05:19:11.973Z,99033.77
2019-03-18T05:22:20.194Z,99038.84
2019-03-18T05:25:26.569Z,99032.66
2019-03-18T05:28:32.895Z,99032.42
2019-03-18T05:31:39.464Z,99028.62
2019-03-18T05:34:46.069Z,99034.94
2019-03-18T05:37:55.734Z,99051.53
2019-03-18T05:41:02.583Z,99041.17
2019-03-18T05:44:09.181Z,99042.88
2019-03-18T05:47:15.729Z,99034.33
2019-03-18T05:50:24.890Z,99051.53
2019-03-18T05:53:31.151Z,99050.61
2019-03-18T05:56:38.043Z,99048.69
2019-03-18T05:59:44.412Z,99050.32
2019-03-18T06:02:50.706Z,99047.44
2019-03-18T06:05:57.040Z,99058.83
2019-03-18T06:09:04.983Z,99057.06
2019-03-18T06:12:13.275Z,99062.63
2019-03-18T06:15:19.602Z,99065.62
2019-03-18T06:18:26.012Z,99053.06
2019-03-18T06:21:32.408Z,99069.50
2019-03-18T06:24:39.516Z,99079.86
2019-03-18T06:27:46.305Z,99067.45
2019-03-18T06:30:52.655Z,99075.72
2019-03-18T06:33:59.131Z,99076.18
2019-03-18T06:37:05.628Z,99070.82
2019-03-18T06:40:12.426Z,99069.22
2019-03-18T06:43:19.330Z,99073.47
2019-03-18T06:46:26.262Z,99084.64
2019-03-18T06:49:32.635Z,99087.71
2019-03-18T06:52:38.990Z,99104.82
2019-03-18T06:55:45.450Z,99106.17
2019-03-18T06:58:51.809Z,99107.03
2019-03-18T07:01:58.235Z,99107.01
2019-03-18T07:05:05.145Z,99106.78
2019-03-18T07:08:11.594Z,99105.42
2019-03-18T07:11:17.961Z,99118.66
2019-03-18T07:14:25.553Z,99122.69
2019-03-18T07:17:31.958Z,99125.80
2019-03-18T07:20:38.298Z,99141.67
2019-03-18T07:23:45.224Z,99146.97
2019-03-18T07:26:51.809Z,99137.44
2019-03-18T07:29:58.254Z,99160.28
2019-03-18T07:33:04.602Z,99142.74
2019-03-18T07:36:10.999Z,99152.97
2019-03-18T07:39:17.375Z,99157.45
2019-03-18T07:42:24.320Z,99171.02
2019-03-18T07:45:31.423Z,99173.18
2019-03-18T07:48:38.121Z,99182.38
2019-03-18T07:51:44.793Z,99168.13
2019-03-18T07:54:51.601Z,99168.59
2019-03-18T07:57:57.883Z,99186.10
2019-03-18T08:01:04.409Z,99177.86
2019-03-18T08:04:10.772Z,99186.89
2019-03-18T08:07:17.266Z,99192.42
2019-03-18T08:10:23.614Z,99197.50
2019-03-18T08:13:29.970Z,99203.13
2019-03-18T08:16:36.405Z,99204.92
2019-03-18T08:19:42.880Z,99198.29
2019-03-18T08:22:49.253Z,99213.03
2019-03-18T08:25:55.696Z,99216.16
2019-03-18T08:29:02.042Z,99230.49
2019-03-18T08:32:11.778Z,99238.59
2019-03-18T08:35:20.262Z,99243.24
2019-03-18T08:38:26.576Z,99247.37
2019-03-18T08:41:32.966Z,99247.19
2019-03-18T08:44:40.600Z,99258.55
2019-03-18T08:47:47.346Z,99258.55
2019-03-18T08:50:53.964Z,99254.50
2019-03-18T08:54:00.310Z,99261.34
2019-03-18T08:57:06.704Z,99265.62
2019-03-18T09:00:13.126Z,99276.64
2019-03-18T09:03:19.418Z,99275.55
2019-03-18T09:06:25.795Z,99281.65
2019-03-18T09:09:32.072Z,99275.55
2019-03-18T09:12:38.388Z,99281.06
2019-03-18T09:15:45.207Z,99277.82
2019-03-18T09:18:51.578Z,99286.03
2019-03-18T09:21:58.044Z,99287.81
2019-03-18T09:25:04.860Z,99295.04
2019-03-18T09:28:11.275Z,99294.74
2019-03-18T09:31:18.018Z,99298.05
2019-03-18T09:34:26.326Z,99303.33
2019-03-18T09:37:32.589Z,99310.88
2019-03-18T09:40:38.945Z,99304.89
2019-03-18T09:43:45.582Z,99311.11
2019-03-18T09:46:51.989Z,99311.30
2019-03-18T09:49:58.507Z,99313.36
2019-03-18T09:53:05.100Z,99308.89
2019-03-18T09:56:11.574Z,99322.67
2019-03-18T09:59:18.015Z,99314.91
2019-03-18T10:02:24.564Z,99319.70
2019-03-18T10:05:30.921Z,99317.98
2019-03-18T10:08:37.505Z,99322.36
2019-03-18T10:11:44.053Z,99323.76
2019-03-18T10:14:50.477Z,99323.05
2019-03-18T10:17:56.753Z,99324.17
2019-03-18T10:21:03.149Z,99325.20
2019-03-18T10:24:09.591Z,99337.91
2019-03-18T10:27:15.925Z,99338.41
2019-03-18T10:30:22.504Z,99350.28
2019-03-18T10:33:28.938Z,99342.19
2019-03-18T10:36:35.277Z,99351.26
2019-03-18T10:39:41.595Z,99349.30
2019-03-18T10:42:48.153Z,99351.30
2019-03-18T10:45:54.624Z,99339.78
2019-03-18T10:49:01.154Z,99341.37
2019-03-18T10:52:07.957Z,99361.35
2019-03-18T10:55:14.722Z,99364.16
2019-03-18T10:58:21.119Z,99347.52
2019-03-18T11:01:28.379Z,99366.38
2019-03-18T11:04:34.727Z,99373.48
2019-03-18T11:07:41.272Z,99378.13
2019-03-18T11:10:47.764Z,99385.91
2019-03-18T11:13:54.209Z,99387.72
2019-03-18T11:17:00.464Z,99385.61
2019-03-18T11:20:07.386Z,99390.15
2019-03-18T11:23:13.738Z,99394.67
2019-03-18T11:26:20.295Z,99397.13
2019-03-18T11:29:26.713Z,99399.41
2019-03-18T11:32:34.138Z,99391.26
2019-03-18T11:35:40.561Z,99397.01
2019-03-18T11:38:46.970Z,99409.25
2019-03-18T11:41:53.453Z,99406.36
2019-03-18T11:44:59.935Z,99410.46
2019-03-18T11:48:06.469Z,99405.06
2019-03-18T11:51:12.841Z,99415.63
2019-03-18T11:54:19.584Z,99416.93
2019-03-18T11:57:26.335Z,99417.25
2019-03-18T12:00:32.740Z,99421.27
2019-03-18T12:03:39.061Z,99426.81
2019-03-18T12:06:45.398Z,99426.81
2019-03-18T12:09:51.771Z,99430.06
2019-03-18T12:12:58.125Z,99428.39
2019-03-18T12:16:04.485Z,99430.20
2019-03-18T12:19:10.724Z,99448.24
2019-03-18T12:22:17.238Z,99441.77
2019-03-18T12:25:23.631Z,99436.34
2019-03-18T12:28:29.926Z,99444.98
2019-03-18T12:31:36.361Z,99450.88
2019-03-18T12:34:42.749Z,99448.30
2019-03-18T12:37:49.162Z,99445.09
2019-03-18T12:40:55.523Z,99448.75
2019-03-18T12:44:01.791Z,99454.09
2019-03-18T12:47:08.238Z,99460.27
2019-03-18T12:50:15.615Z,99447.42
2019-03-18T12:53:21.881Z,99465.91
2019-03-18T12:56:28.538Z,99467.27
2019-03-18T12:59:35.391Z,99459.44
2019-03-18T13:02:41.707Z,99464.77
2019-03-18T13:05:48.152Z,99475.83
2019-03-18T13:08:54.496Z,99484.31
2019-03-18T13:12:00.784Z,99484.97
2019-03-18T13:15:08.304Z,99488.18
2019-03-18T13:18:15.859Z,99490.41
2019-03-18T13:21:22.120Z,99500.25
2019-03-18T13:24:28.444Z,99504.95
2019-03-18T13:27:34.835Z,99506.86
2019-03-18T13:30:41.202Z,99523.25
2019-03-18T13:33:47.468Z,99522.46
2019-03-18T13:36:53.997Z,99521.36
2019-03-18T13:40:00.438Z,99530.45
2019-03-18T13:43:06.787Z,99539.00
2019-03-18T13:46:13.110Z,99543.98
2019-03-18T13:49:19.568Z,99542.53
2019-03-18T13:52:25.851Z,99545.88
2019-03-18T13:55:32.351Z,99558.22
2019-03-18T13:58:40.448Z,99562.91
2019-03-18T14:01:47.501Z,99560.60
2019-03-18T14:04:53.940Z,99568.30
2019-03-18T14:08:01.377Z,99570.25
2019-03-18T14:11:07.952Z,99577.20
2019-03-18T14:14:15.836Z,99581.55
2019-03-18T14:17:23.827Z,99588.27
2019-03-18T14:20:30.183Z,99585.45
2019-03-18T14:23:36.541Z,99590.02
2019-03-18T14:26:43.036Z,99600.62
2019-03-18T14:29:49.401Z,99602.12
2019-03-18T14:32:55.929Z,99604.52
2019-03-18T14:36:02.154Z,99611.45
2019-03-18T14:39:08.508Z,99614.95
2019-03-18T14:42:15.059Z,99624.84
2019-03-18T14:45:21.475Z,99632.28
2019-03-18T14:48:27.819Z,99637.27
2019-03-18T14:51:45.287Z,99646.14
2019-03-18T14:54:42.267Z,99651.16
2019-03-18T14:57:48.732Z,99650.91
2019-03-18T15:00:55.321Z,99657.59
2019-03-18T15:04:01.867Z,99664.13
2019-03-18T15:07:08.557Z,99673.53
2019-03-18T15:10:15.127Z,99678.36
2019-03-18T15:13:30.300Z,99687.53
2019-03-18T15:16:29.594Z,99689.61
2019-03-18T15:19:36.071Z,99698.48
2019-03-18T15:22:42.477Z,99698.22
2019-03-18T15:25:48.827Z,99716.03
2019-03-18T15:28:58.405Z,99721.09
2019-03-18T15:32:05.925Z,99725.19
2019-03-18T15:35:13.952Z,99728.96
2019-03-18T15:38:20.249Z,99744.27
2019-03-18T15:41:26.608Z,99755.06
2019-03-18T15:44:33.038Z,99768.98
2019-03-18T15:47:39.638Z,99773.56
2019-03-18T15:50:46.069Z,99783.89
2019-03-18T15:53:52.477Z,99792.45
2019-03-18T15:57:00.254Z,99808.99
2019-03-18T16:00:08.455Z,99814.45
2019-03-18T16:03:15.874Z,99824.28
2019-03-18T16:06:22.645Z,99837.99
2019-03-18T16:09:29.109Z,99847.90
2019-03-18T16:12:35.652Z,99858.98
2019-03-18T16:15:41.937Z,99875.88
2019-03-18T16:18:48.365Z,99882.49
2019-03-18T16:21:54.706Z,99891.09
2019-03-18T16:25:01.088Z,99905.02
2019-03-18T16:28:07.519Z,99916.69
2019-03-18T16:31:13.922Z,99935.73
2019-03-18T16:34:20.289Z,99941.48
2019-03-18T16:37:26.846Z,99945.02
2019-03-18T16:40:33.204Z,99958.55
2019-03-18T16:43:39.688Z,99967.81
2019-03-18T16:46:46.096Z,99975.25
2019-03-18T16:49:52.527Z,99982.56
2019-03-18T16:52:58.991Z,99996.28
2019-03-18T16:56:05.521Z,100010.92
2019-03-18T16:59:18.758Z,100023.91
2019-03-18T17:02:26.796Z,100032.91
2019-03-18T17:05:33.457Z,100043.33
2019-03-18T17:08:39.948Z,100040.02
2019-03-18T17:11:46.497Z,100050.55
2019-03-18T17:14:52.869Z,100061.64
2019-03-18T17:17:59.236Z,100071.71
2019-03-18T17:21:07.361Z,100073.12
2019-03-18T17:24:14.802Z,100083.08
2019-03-18T17:27:21.433Z,100097.99
2019-03-18T17:30:36.978Z,100116.83
2019-03-18T17:33:48.927Z,100125.70
2019-03-18T17:37:11.690Z,100130.28
2019-03-18T17:40:17.605Z,100137.21
2019-03-18T17:43:24.224Z,100144.33
2019-03-18T17:46:30.636Z,100161.16
2019-03-18T17:49:37.346Z,100167.45
2019-03-18T17:52:43.799Z,100167.53
2019-03-18T17:55:50.373Z,100170.48
2019-03-18T17:58:56.741Z,100187.05
2019-03-18T18:02:03.107Z,100194.65
2019-03-18T18:05:09.622Z,100197.19
2019-03-18T18:08:18.308Z,100200.30
2019-03-18T18:11:24.391Z,100217.06
2019-03-18T18:14:30.846Z,100220.64
2019-03-18T18:17:37.623Z,100229.16
2019-03-18T18:20:44.192Z,100243.26
2019-03-18T18:23:52.229Z,100248.98
2019-03-18T18:26:58.693Z,100243.08
2019-03-18T18:30:05.810Z,100258.43
2019-03-18T18:33:12.414Z,100262.73
2019-03-18T18:36:19.018Z,100275.52
2019-03-18T18:39:27.036Z,100276.50
2019-03-18T18:42:33.437Z,100276.86
2019-03-18T18:45:42.523Z,100283.56
2019-03-18T18:48:48.909Z,100299.74
2019-03-18T18:51:57.937Z,100299.38
2019-03-18T18:55:04.524Z,100312.48
2019-03-18T18:58:10.835Z,100318.23
2019-03-18T19:01:19.349Z,100322.95
2019-03-18T19:04:25.721Z,100306.18
2019-03-18T19:07:32.082Z,100347.64
2019-03-18T19:10:38.569Z,100351.33
2019-03-18T19:13:45.278Z,100350.48
2019-03-18T19:16:51.644Z,100347.79
2019-03-18T19:19:58.114Z,100361.06
2019-03-18T19:23:04.458Z,100363.40
2019-03-18T19:26:10.819Z,100370.32
2019-03-18T19:29:17.289Z,100372.97
2019-03-18T19:32:24.020Z,100376.36
2019-03-18T19:35:30.480Z,100387.62
2019-03-18T19:38:37.079Z,100394.52
2019-03-18T19:41:43.532Z,100414.98
2019-03-18T19:44:50.006Z,100399.89
2019-03-18T19:47:57.266Z,100405.75
2019-03-18T19:51:03.774Z,100405.25
2019-03-18T19:54:12.729Z,100421.69
2019-03-18T19:57:18.243Z,100424.05
2019-03-18T20:00:24.618Z,100422.72
2019-03-18T20:03:31.275Z,100432.46
2019-03-18T20:06:37.710Z,100426.76
2019-03-18T20:09:46.331Z,100440.52
2019-03-18T20:12:59.342Z,100436.30
2019-03-18T20:16:08.119Z,100435.47
2019-03-18T20:19:16.363Z,100442.03
2019-03-18T20:22:22.995Z,100442.03
2019-03-18T20:25:29.418Z,100443.87
2019-03-18T20:28:35.881Z,100452.12
2019-03-18T20:31:43.270Z,100452.12
2019-03-18T20:34:49.634Z,100457.64
2019-03-18T20:37:56.023Z,100465.37
2019-03-18T20:41:02.575Z,100471.77
2019-03-18T20:44:08.888Z,100464.66
2019-03-18T20:47:15.608Z,100461.14
2019-03-18T20:50:25.488Z,100474.45
2019-03-18T20:53:31.879Z,100486.89
2019-03-18T20:56:38.261Z,100487.55
2019-03-18T20:59:44.693Z,100504.61
2019-03-18T21:02:51.046Z,100428.34
2019-03-18T21:05:57.613Z,100517.77
2019-03-18T21:09:04.845Z,100522.33
2019-03-18T21:12:11.372Z,100545.08
2019-03-18T21:15:19.956Z,100545.08
2019-03-18T21:18:26.642Z,100540.58
2019-03-18T21:21:33.066Z,100472.67
2019-03-18T21:24:39.745Z,100547.00
2019-03-18T21:27:46.083Z,100549.69
2019-03-18T21:30:52.451Z,100561.47
2019-03-18T21:33:58.910Z,100572.01
2019-03-18T21:37:05.306Z,100587.31
2019-03-18T21:40:12.325Z,100587.31
2019-03-18T21:43:18.918Z,100589.30
2019-03-18T21:46:25.296Z,100601.11
2019-03-18T21:49:31.705Z,100609.52
2019-03-18T21:52:38.062Z,100608.84
2019-03-18T21:55:44.517Z,100619.42
2019-03-18T21:58:50.941Z,100624.23
2019-03-18T22:01:57.415Z,100634.31
2019-03-18T22:05:03.747Z,100636.19
2019-03-18T22:08:10.154Z,100644.39
2019-03-18T22:11:16.619Z,100652.48
2019-03-18T22:14:22.914Z,100655.49
2019-03-18T22:17:30.082Z,100537.31
2019-03-18T22:20:36.735Z,100658.84
2019-03-18T22:23:43.714Z,100664.75
2019-03-18T22:26:50.225Z,100657.95
2019-03-18T22:29:56.749Z,100668.83
2019-03-18T22:33:03.093Z,100677.57
2019-03-18T22:36:09.476Z,100681.64
2019-03-18T22:39:15.958Z,100695.75
2019-03-18T22:42:22.334Z,100707.17
2019-03-18T22:45:28.694Z,100692.93
2019-03-18T22:48:35.201Z,100698.08
2019-03-18T22:51:41.545Z,100713.58
2019-03-18T22:54:55.542Z,100718.63
2019-03-18T22:57:56.150Z,100729.02
2019-03-18T23:01:08.027Z,100733.72
2019-03-18T23:04:14.633Z,100730.69
2019-03-18T23:07:21.143Z,100739.11
2019-03-18T23:10:27.427Z,100745.34
2019-03-18T23:13:33.701Z,100739.28
2019-03-18T23:16:40.307Z,100756.81
2019-03-18T23:19:47.046Z,100753.56
2019-03-18T23:22:53.614Z,100771.16
2019-03-18T23:26:00.048Z,100774.35
2019-03-18T23:29:06.416Z,100769.94
2019-03-18T23:32:12.747Z,100784.34
2019-03-18T23:35:19.306Z,100784.34
2019-03-18T23:38:25.597Z,100788.66
2019-03-18T23:41:32.126Z,100796.91
2019-03-18T23:44:39.437Z,100791.31
2019-03-18T23:47:45.820Z,100805.78
2019-03-18T23:50:52.207Z,100810.61
2019-03-18T23:53:58.474Z,100806.53
2019-03-18T23:57:04.828Z,100816.90
